デリー の空港の天気 - METARとTAF

インディラ・ガンディー国際空港 ( VIDP / DEL ) - インド デリー
飛行場実況気象(Metar)
観測時間05/28 10:30 IST (05/28 05:00 UTC)
風向・風速東南東 4m/s 瞬間風速9m/s
視程3500m
天気現象煙霧
全天の4割程度の雲 雲底高度 1220m
全天の8割程度の雲 雲底高度 3050m
気温35℃
湿度37%
気圧1001hPa
METARVIDP 280500Z 12008G18KT 3500 HZ SCT040 BKN100 35/18 Q1001 NOSIG
過去の天気等 Google飛行場航空写真 Wunderground天気予報

過去48時間のMETAR

飛行場予報(TAF)
発表時間: 5/28 10:30 IST (5/28 05:00 UTC)
予報対象時間: 28日11時 IST ~ 29日17時 IST
風向・風速南南東 4m/s 瞬間風速 9m/s
視程4000m
天気現象煙霧 風塵
全天の4割程度の雲 雲底高度 1070m
全天の4割程度の雲 雲底高度 3050m
28日17時 IST ~ 28日19時 IST に徐々に
風向・風速北西 4m/s
視程4000m
天気現象煙霧
少しの雲 雲底高度 3050m
28日14時 IST ~ 28日17時 IST に一時的に
少しの積乱雲 雲底高度 1220m
28日23時 IST ~ 29日1時 IST に徐々に
風向・風速西南西 3m/s
視程3000m
天気現象煙霧
29日9時 IST ~ 29日11時 IST に徐々に
風向・風速西北西 4m/s
視程5000m
天気現象煙霧
少しの雲 雲底高度 3050m
29日13時 IST ~ 29日17時 IST に徐々に
風向・風速北西 5m/s 瞬間風速 13m/s
視程1000m
天気現象塵嵐 雷雨
全天の4割程度の雲 雲底高度 1070m
少しの積乱雲 雲底高度 1220m
全天の8割程度の雲 雲底高度 3050m
TAF VIDP 280500Z 2806/2912 15008G18KT 4000 HZ DU SCT035 SCT100
BECMG 2812/2814 32008KT 4000 HZ FEW100
TEMPO 2809/2812 FEW040CB
BECMG 2818/2820 25005KT 3000 HZ
BECMG 2904/2906 29008KT 5000 HZ FEW100
BECMG 2908/2912 32010G25KT 1000 DS TSRA SCT035 FEW040CB BKN100